createdAt,value
2018-08-30T00:01:10.338Z,16.00
2018-08-30T00:06:14.382Z,16.43
2018-08-30T00:11:18.175Z,16.40
2018-08-30T00:16:21.982Z,14.73
2018-08-30T00:21:26.126Z,15.00
2018-08-30T00:26:30.206Z,18.47
2018-08-30T00:31:34.235Z,17.73
2018-08-30T00:36:38.426Z,17.50
2018-08-30T00:41:42.491Z,20.90
2018-08-30T00:46:46.547Z,22.47
2018-08-30T00:51:50.586Z,25.07
2018-08-30T00:56:54.682Z,30.43
2018-08-30T01:01:58.474Z,29.70
2018-08-30T01:07:02.542Z,28.53
2018-08-30T01:12:06.674Z,28.30
2018-08-30T01:17:10.777Z,32.80
2018-08-30T01:22:14.816Z,41.90
2018-08-30T01:27:18.616Z,42.57
2018-08-30T01:32:22.404Z,44.83
2018-08-30T01:37:26.459Z,52.10
2018-08-30T01:42:30.535Z,43.10
2018-08-30T01:47:34.598Z,47.03
2018-08-30T01:52:38.730Z,45.93
2018-08-30T01:57:42.534Z,47.17
2018-08-30T02:02:46.639Z,48.33
2018-08-30T02:07:50.667Z,54.90
2018-08-30T02:12:54.545Z,58.90
2018-08-30T02:17:58.610Z,60.87
2018-08-30T02:23:02.430Z,56.33
2018-08-30T02:28:06.464Z,51.17
2018-08-30T02:33:10.556Z,53.67
2018-08-30T02:38:14.586Z,56.70
2018-08-30T02:43:18.686Z,58.50
2018-08-30T02:48:22.724Z,50.10
2018-08-30T02:53:26.509Z,47.90
2018-08-30T02:58:30.326Z,50.87
2018-08-30T03:03:34.359Z,50.40
2018-08-30T03:08:38.422Z,59.30
2018-08-30T03:13:42.456Z,56.03
2018-08-30T03:18:46.408Z,54.30
2018-08-30T03:23:50.466Z,54.30
2018-08-30T03:28:54.564Z,52.67
2018-08-30T03:33:58.627Z,54.70
2018-08-30T03:39:02.774Z,50.83
2018-08-30T03:44:06.838Z,52.47
2018-08-30T03:49:11.016Z,51.53
2018-08-30T03:54:14.839Z,45.70
2018-08-30T03:59:18.934Z,48.53
2018-08-30T04:04:23.073Z,47.37
2018-08-30T04:09:27.123Z,44.70
2018-08-30T04:14:31.188Z,47.60
2018-08-30T04:19:35.006Z,44.73
2018-08-30T04:24:39.064Z,49.70
2018-08-30T04:29:43.137Z,42.53
2018-08-30T04:34:47.247Z,50.67
2018-08-30T04:39:51.069Z,49.23
2018-08-30T04:44:54.949Z,48.10
2018-08-30T04:49:58.818Z,51.00
2018-08-30T04:55:02.819Z,50.63
2018-08-30T05:00:06.662Z,46.75
2018-08-30T05:05:10.734Z,48.10
2018-08-30T05:10:14.841Z,43.30
2018-08-30T05:15:18.896Z,44.58
2018-08-30T05:20:23.215Z,43.05
2018-08-30T05:25:27.063Z,39.77
2018-08-30T05:30:31.316Z,40.43
2018-08-30T05:35:35.432Z,43.30
2018-08-30T05:40:39.610Z,38.93
2018-08-30T05:45:43.658Z,43.63
2018-08-30T05:50:47.751Z,39.83
2018-08-30T05:55:52.139Z,41.53
2018-08-30T06:00:56.021Z,40.37
2018-08-30T06:05:59.865Z,41.00
2018-08-30T06:11:03.679Z,43.03
2018-08-30T06:16:07.840Z,39.23
2018-08-30T06:21:11.875Z,39.93
2018-08-30T06:26:15.712Z,38.65
2018-08-30T06:31:19.784Z,37.53
2018-08-30T06:36:23.613Z,35.37
2018-08-30T06:41:27.429Z,37.50
2018-08-30T06:46:31.261Z,35.23
2018-08-30T06:51:35.326Z,33.27
2018-08-30T06:56:39.507Z,34.07
2018-08-30T07:01:43.569Z,32.20
2018-08-30T07:06:47.671Z,30.97
2018-08-30T07:11:51.719Z,30.73
2018-08-30T07:16:55.894Z,31.30
2018-08-30T07:22:06.271Z,31.83
2018-08-30T07:27:10.503Z,31.10
2018-08-30T07:32:14.310Z,30.67
2018-08-30T07:37:18.135Z,26.87
2018-08-30T07:42:22.213Z,24.90
2018-08-30T07:47:26.049Z,23.07
2018-08-30T07:52:30.331Z,25.77
2018-08-30T07:57:37.234Z,24.87
2018-08-30T08:02:41.028Z,18.63
2018-08-30T08:07:44.837Z,19.77
2018-08-30T08:12:48.980Z,17.00
2018-08-30T08:17:52.994Z,16.53
2018-08-30T08:22:57.063Z,17.37
2018-08-30T08:28:01.132Z,13.65
2018-08-30T08:33:05.256Z,10.30
2018-08-30T08:38:09.105Z,11.12
2018-08-30T08:43:13.138Z,9.37
2018-08-30T08:48:17.226Z,9.67
2018-08-30T08:53:21.276Z,10.00
2018-08-30T08:58:25.326Z,10.17
2018-08-30T09:03:29.133Z,10.40
2018-08-30T09:08:33.221Z,12.90
2018-08-30T09:13:37.351Z,11.70
2018-08-30T09:18:41.383Z,7.33
2018-08-30T09:23:45.546Z,10.03
2018-08-30T09:28:49.381Z,9.30
2018-08-30T09:33:53.577Z,6.27
2018-08-30T09:38:57.630Z,7.03
2018-08-30T09:44:01.741Z,7.57
2018-08-30T09:49:06.410Z,8.67
2018-08-30T09:54:10.542Z,9.33
2018-08-30T09:59:14.366Z,10.00
2018-08-30T10:04:19.176Z,7.87
2018-08-30T10:09:23.293Z,7.47
2018-08-30T10:14:27.347Z,8.43
2018-08-30T10:19:31.395Z,7.87
2018-08-30T10:24:35.206Z,9.17
2018-08-30T10:29:39.290Z,8.83
2018-08-30T10:34:43.359Z,8.20
2018-08-30T10:39:47.557Z,5.90
2018-08-30T10:44:51.380Z,6.10
2018-08-30T10:49:55.530Z,4.13
2018-08-30T10:54:59.527Z,5.33
2018-08-30T11:00:03.664Z,4.73
2018-08-30T11:05:07.771Z,6.43
2018-08-30T11:10:11.813Z,5.27
2018-08-30T11:15:15.693Z,6.03
2018-08-30T11:20:19.794Z,6.00
2018-08-30T11:25:23.867Z,4.40
2018-08-30T11:30:27.922Z,6.93
2018-08-30T11:35:31.990Z,8.90
2018-08-30T11:40:36.051Z,7.40
2018-08-30T11:45:40.130Z,5.30
2018-08-30T11:50:44.203Z,6.03
2018-08-30T11:55:48.386Z,4.23
2018-08-30T12:00:52.547Z,4.93
2018-08-30T12:05:56.511Z,6.57
2018-08-30T12:11:00.787Z,6.27
2018-08-30T12:16:05.275Z,5.23
2018-08-30T12:21:09.386Z,5.23
2018-08-30T12:26:13.213Z,5.37
2018-08-30T12:31:17.608Z,5.57
2018-08-30T12:36:21.651Z,5.17
2018-08-30T12:41:25.871Z,6.70
2018-08-30T12:46:29.630Z,6.63
2018-08-30T12:51:33.874Z,5.93
2018-08-30T12:56:37.876Z,4.83
2018-08-30T13:01:41.939Z,7.90
2018-08-30T13:06:50.113Z,6.40
2018-08-30T13:11:54.441Z,6.50
2018-08-30T13:16:58.742Z,6.28
2018-08-30T13:22:02.999Z,5.07
2018-08-30T13:27:07.033Z,3.17
2018-08-30T13:32:11.128Z,5.97
2018-08-30T13:37:15.308Z,3.60
2018-08-30T13:42:19.365Z,5.37
2018-08-30T13:47:23.142Z,5.57
2018-08-30T13:52:27.335Z,5.00
2018-08-30T13:57:31.424Z,4.30
2018-08-30T14:02:35.606Z,7.23
2018-08-30T14:07:39.427Z,7.00
2018-08-30T14:12:43.526Z,3.50
2018-08-30T14:17:47.318Z,3.93
2018-08-30T14:22:51.234Z,3.63
2018-08-30T14:27:55.346Z,4.97
2018-08-30T14:32:59.448Z,4.70
2018-08-30T14:38:03.493Z,9.03
2018-08-30T14:43:07.391Z,3.93
2018-08-30T14:48:11.206Z,6.75
2018-08-30T14:53:15.341Z,6.50
2018-08-30T14:58:19.086Z,6.50
2018-08-30T15:03:23.230Z,4.40
2018-08-30T15:08:27.299Z,4.17
2018-08-30T15:13:31.358Z,6.60
2018-08-30T15:18:35.559Z,4.17
2018-08-30T15:23:39.438Z,3.57
2018-08-30T15:28:43.493Z,3.80
2018-08-30T15:33:47.447Z,7.27
2018-08-30T15:38:51.403Z,5.77
2018-08-30T15:43:55.238Z,4.93
2018-08-30T15:48:59.438Z,3.27
2018-08-30T15:54:03.415Z,6.77
2018-08-30T15:59:07.256Z,4.40
2018-08-30T16:04:11.319Z,5.77
2018-08-30T16:09:15.390Z,5.27
2018-08-30T16:14:19.801Z,4.20
2018-08-30T16:19:23.904Z,4.27
2018-08-30T16:24:28.006Z,6.37
2018-08-30T16:29:31.885Z,5.33
2018-08-30T16:34:35.954Z,4.70
2018-08-30T16:39:39.900Z,6.73
2018-08-30T16:44:44.034Z,4.57
2018-08-30T16:49:48.153Z,6.40
2018-08-30T16:54:51.991Z,6.70
2018-08-30T16:59:56.091Z,5.67
2018-08-30T17:05:00.143Z,2.98
2018-08-30T17:10:04.217Z,7.30
2018-08-30T17:15:08.294Z,5.90
2018-08-30T17:20:21.294Z,5.80
2018-08-30T17:25:25.475Z,6.78
2018-08-30T17:30:29.446Z,5.42
2018-08-30T17:35:33.368Z,5.47
2018-08-30T17:40:37.423Z,4.93
2018-08-30T17:45:41.529Z,6.78
2018-08-30T17:50:45.355Z,4.10
2018-08-30T17:55:49.296Z,3.13
2018-08-30T18:00:53.370Z,3.92
2018-08-30T18:05:57.510Z,5.20
2018-08-30T18:11:01.642Z,4.87
2018-08-30T18:16:06.684Z,3.17
2018-08-30T18:21:10.914Z,2.67
2018-08-30T18:26:16.075Z,4.13
2018-08-30T18:31:20.188Z,3.77
2018-08-30T18:36:24.043Z,3.47
2018-08-30T18:41:28.107Z,4.70
2018-08-30T18:46:32.566Z,2.07
2018-08-30T18:51:36.634Z,5.63
2018-08-30T18:56:43.264Z,3.10
2018-08-30T19:01:47.389Z,5.23
2018-08-30T19:06:51.430Z,7.47
2018-08-30T19:11:55.559Z,6.33
2018-08-30T19:17:04.990Z,4.37
2018-08-30T19:22:09.078Z,4.57
2018-08-30T19:27:13.120Z,8.97
2018-08-30T19:32:17.268Z,5.70
2018-08-30T19:37:21.318Z,4.20
2018-08-30T19:42:25.137Z,5.77
2018-08-30T19:47:29.179Z,4.20
2018-08-30T19:52:33.272Z,4.83
2018-08-30T19:57:37.302Z,5.97
2018-08-30T20:02:42.221Z,4.53
2018-08-30T20:07:46.030Z,4.40
2018-08-30T20:12:49.853Z,3.43
2018-08-30T20:17:53.931Z,4.87
2018-08-30T20:22:57.962Z,7.10
2018-08-30T20:28:02.031Z,3.47
2018-08-30T20:33:06.404Z,4.97
2018-08-30T20:38:10.490Z,3.40
2018-08-30T20:43:14.543Z,6.43
2018-08-30T20:48:18.350Z,4.37
2018-08-30T20:53:22.411Z,6.07
2018-08-30T20:58:26.458Z,6.50
2018-08-30T21:03:30.511Z,4.67
2018-08-30T21:08:34.594Z,4.27
2018-08-30T21:13:38.675Z,3.30
2018-08-30T21:18:42.486Z,4.85
2018-08-30T21:23:46.610Z,4.70
2018-08-30T21:28:50.658Z,5.53
2018-08-30T21:33:54.739Z,7.75
2018-08-30T21:38:58.658Z,6.12
2018-08-30T21:44:02.849Z,5.33
2018-08-30T21:49:06.737Z,5.15
2018-08-30T21:54:10.841Z,5.27
2018-08-30T21:59:14.894Z,3.47
2018-08-30T22:04:19.022Z,3.93
2018-08-30T22:09:23.150Z,3.70
2018-08-30T22:14:27.201Z,3.97
2018-08-30T22:19:31.286Z,6.20
2018-08-30T22:24:35.081Z,7.20
2018-08-30T22:29:39.228Z,4.07
2018-08-30T22:34:43.273Z,5.27
2018-08-30T22:39:48.030Z,7.25
2018-08-30T22:44:51.809Z,5.93
2018-08-30T22:49:55.938Z,5.13
2018-08-30T22:54:59.729Z,3.90
2018-08-30T23:00:03.733Z,3.90
2018-08-30T23:05:07.790Z,6.53
2018-08-30T23:10:11.693Z,5.57
2018-08-30T23:15:15.877Z,5.00
2018-08-30T23:20:19.710Z,6.47
2018-08-30T23:25:23.790Z,4.00
2018-08-30T23:30:27.628Z,5.70
2018-08-30T23:35:32.055Z,5.30
2018-08-30T23:40:35.896Z,4.77
2018-08-30T23:45:40.011Z,4.77
2018-08-30T23:50:44.067Z,5.03
2018-08-30T23:55:47.881Z,4.23
